createdAt,value
2022-11-28T00:01:00.093Z,2.83
2022-11-28T00:03:26.442Z,3.67
2022-11-28T00:05:52.901Z,3.92
2022-11-28T00:08:19.205Z,3.88
2022-11-28T00:10:45.490Z,4.60
2022-11-28T00:13:11.818Z,3.90
2022-11-28T00:15:38.111Z,3.40
2022-11-28T00:18:04.483Z,4.03
2022-11-28T00:20:33.706Z,3.97
2022-11-28T00:22:59.913Z,2.92
2022-11-28T00:25:26.142Z,3.72
2022-11-28T00:27:52.374Z,3.15
2022-11-28T00:30:18.666Z,4.00
2022-11-28T00:32:44.952Z,4.00
2022-11-28T00:35:11.454Z,4.55
2022-11-28T00:37:37.730Z,3.70
2022-11-28T00:40:04.190Z,4.00
2022-11-28T00:42:30.467Z,3.72
2022-11-28T00:44:56.747Z,3.63
2022-11-28T00:47:23.025Z,3.50
2022-11-28T00:49:49.283Z,2.63
2022-11-28T00:52:15.544Z,3.63
2022-11-28T00:54:42.017Z,4.00
2022-11-28T00:57:08.509Z,3.78
2022-11-28T00:59:34.712Z,3.28
2022-11-28T01:02:01.055Z,3.88
2022-11-28T01:04:27.816Z,3.45
2022-11-28T01:06:55.622Z,4.13
2022-11-28T01:09:22.777Z,3.47
2022-11-28T01:11:50.182Z,3.85
2022-11-28T01:14:18.319Z,3.38
2022-11-28T01:16:44.621Z,3.85
2022-11-28T01:19:11.036Z,3.72
2022-11-28T01:21:37.517Z,3.28
2022-11-28T01:24:03.941Z,4.50
2022-11-28T01:26:30.662Z,4.45
2022-11-28T01:28:57.105Z,3.17
2022-11-28T01:31:24.992Z,4.13
2022-11-28T01:33:51.371Z,4.18
2022-11-28T01:36:18.433Z,3.10
2022-11-28T01:38:44.902Z,3.58
2022-11-28T01:41:12.101Z,3.58
2022-11-28T01:43:56.330Z,3.30
2022-11-28T01:46:22.633Z,3.53
2022-11-28T01:48:48.969Z,3.35
2022-11-28T01:51:15.457Z,2.80
2022-11-28T01:53:43.097Z,2.95
2022-11-28T01:56:12.928Z,2.92
2022-11-28T01:58:41.053Z,2.92
2022-11-28T02:01:07.586Z,3.10
2022-11-28T02:03:38.245Z,3.08
2022-11-28T02:06:04.663Z,3.13
2022-11-28T02:08:34.834Z,3.30
2022-11-28T02:11:12.417Z,3.00
2022-11-28T02:13:38.665Z,3.38
2022-11-28T02:16:43.417Z,4.15
2022-11-28T02:19:32.521Z,3.17
2022-11-28T02:22:01.283Z,3.17
2022-11-28T02:24:30.399Z,2.78
2022-11-28T02:27:02.366Z,3.15
2022-11-28T02:29:28.561Z,3.30
2022-11-28T02:32:13.097Z,3.45
2022-11-28T02:34:54.582Z,3.47
2022-11-28T02:37:47.081Z,2.40
2022-11-28T02:40:13.339Z,3.40
2022-11-28T02:42:45.521Z,3.22
2022-11-28T02:45:22.738Z,3.40
2022-11-28T02:47:51.630Z,3.25
2022-11-28T02:50:30.429Z,2.85
2022-11-28T02:53:01.861Z,2.50
2022-11-28T02:55:28.121Z,2.47
2022-11-28T02:57:55.079Z,3.53
2022-11-28T03:00:21.662Z,2.95
2022-11-28T03:02:51.914Z,0.82
2022-11-28T03:05:23.448Z,2.67
2022-11-28T03:08:18.826Z,1.90
2022-11-28T03:10:50.305Z,4.07
2022-11-28T03:13:27.233Z,2.85
2022-11-28T03:16:12.407Z,2.63
2022-11-28T03:18:40.097Z,2.53
2022-11-28T03:21:12.868Z,3.20
2022-11-28T03:23:43.637Z,2.63
2022-11-28T03:26:18.709Z,2.53
2022-11-28T03:28:47.827Z,2.50
2022-11-28T03:31:17.054Z,2.75
2022-11-28T03:33:55.604Z,3.08
2022-11-28T03:36:25.209Z,2.00
2022-11-28T03:38:54.228Z,2.58
2022-11-28T03:41:35.624Z,3.10
2022-11-28T03:44:02.272Z,2.83
2022-11-28T03:46:34.350Z,2.38
2022-11-28T03:49:01.652Z,2.75
2022-11-28T03:51:37.362Z,2.53
2022-11-28T03:54:08.221Z,3.45
2022-11-28T03:59:08.198Z,2.63
2022-11-28T04:01:39.355Z,2.50
2022-11-28T04:04:18.867Z,2.65
2022-11-28T04:07:03.770Z,3.08
2022-11-28T04:09:56.332Z,2.88
2022-11-28T04:12:34.621Z,3.00
2022-11-28T04:15:04.111Z,3.17
2022-11-28T04:17:35.865Z,3.03
2022-11-28T04:20:13.902Z,3.03
2022-11-28T04:22:48.889Z,3.45
2022-11-28T04:25:16.909Z,3.03
2022-11-28T04:28:03.405Z,3.55
2022-11-28T04:30:29.662Z,2.40
2022-11-28T04:33:07.705Z,3.45
2022-11-28T04:35:36.366Z,3.30
2022-11-28T04:38:04.969Z,3.50
2022-11-28T04:40:32.901Z,3.53
2022-11-28T04:43:02.279Z,3.40
2022-11-28T04:45:31.972Z,3.40
2022-11-28T04:47:58.532Z,3.35
2022-11-28T04:50:28.442Z,3.92
2022-11-28T04:52:56.772Z,3.80
2022-11-28T04:55:43.361Z,3.35
2022-11-28T04:58:12.798Z,2.97
2022-11-28T05:00:39.699Z,3.38
2022-11-28T05:03:06.494Z,3.33
2022-11-28T05:05:41.547Z,3.28
2022-11-28T05:08:07.771Z,3.35
2022-11-28T05:10:34.916Z,2.08
2022-11-28T05:13:01.223Z,3.40
2022-11-28T05:15:27.506Z,2.70
2022-11-28T05:17:53.725Z,3.15
2022-11-28T05:20:20.013Z,3.15
2022-11-28T05:22:46.250Z,3.03
2022-11-28T05:25:12.648Z,3.17
2022-11-28T05:27:38.982Z,2.83
2022-11-28T05:30:06.238Z,3.85
2022-11-28T05:32:32.886Z,3.75
2022-11-28T05:34:59.210Z,3.75
2022-11-28T05:37:25.581Z,4.13
2022-11-28T05:39:51.893Z,3.10
2022-11-28T05:42:18.123Z,3.45
2022-11-28T05:44:44.398Z,4.00
2022-11-28T05:47:10.693Z,3.95
2022-11-28T05:49:36.928Z,3.42
2022-11-28T05:52:03.308Z,3.40
2022-11-28T05:54:30.522Z,2.85
2022-11-28T05:56:56.741Z,3.72
2022-11-28T05:59:23.088Z,3.53
2022-11-28T06:01:49.457Z,3.42
2022-11-28T06:04:15.719Z,3.03
2022-11-28T06:06:41.937Z,2.67
2022-11-28T06:09:08.172Z,3.25
2022-11-28T06:11:34.515Z,3.03
2022-11-28T06:14:01.248Z,3.25
2022-11-28T06:16:28.285Z,3.58
2022-11-28T06:19:01.674Z,3.53
2022-11-28T06:21:28.834Z,3.33
2022-11-28T06:23:55.993Z,2.65
2022-11-28T06:26:23.285Z,3.58
2022-11-28T06:28:49.730Z,3.67
2022-11-28T06:31:17.833Z,3.10
2022-11-28T06:33:44.185Z,3.80
2022-11-28T06:36:11.429Z,3.95
2022-11-28T06:38:37.889Z,3.63
2022-11-28T06:41:05.849Z,3.50
2022-11-28T06:43:32.389Z,3.47
2022-11-28T06:45:58.716Z,3.33
2022-11-28T06:48:26.483Z,3.88
2022-11-28T06:50:53.063Z,3.75
2022-11-28T06:53:19.649Z,3.75
2022-11-28T06:55:46.320Z,4.22
2022-11-28T06:58:12.746Z,4.05
2022-11-28T07:00:39.027Z,3.95
2022-11-28T07:03:05.381Z,3.30
2022-11-28T07:05:31.650Z,4.55
2022-11-28T07:07:58.184Z,3.53
2022-11-28T07:10:24.800Z,3.97
2022-11-28T07:12:54.625Z,4.05
2022-11-28T07:15:22.469Z,3.33
2022-11-28T07:17:48.862Z,4.18
2022-11-28T07:20:15.127Z,4.25
2022-11-28T07:22:41.430Z,3.75
2022-11-28T07:25:07.855Z,3.63
2022-11-28T07:27:34.100Z,4.68
2022-11-28T07:30:00.371Z,4.80
2022-11-28T07:32:26.691Z,4.10
2022-11-28T07:34:52.944Z,4.82
2022-11-28T07:37:19.305Z,5.00
2022-11-28T07:39:45.725Z,4.68
2022-11-28T07:42:12.205Z,4.53
2022-11-28T07:44:38.506Z,4.75
2022-11-28T07:47:04.945Z,4.80
2022-11-28T07:49:31.338Z,4.88
2022-11-28T07:51:58.253Z,4.70
2022-11-28T07:54:24.532Z,4.20
2022-11-28T07:57:12.747Z,4.72
2022-11-28T07:59:37.033Z,4.90
2022-11-28T08:02:03.536Z,4.75
2022-11-28T08:04:30.015Z,4.88
2022-11-28T08:06:56.954Z,5.68
2022-11-28T08:09:23.321Z,5.90
2022-11-28T08:11:52.383Z,5.53
2022-11-28T08:14:18.622Z,5.07
2022-11-28T08:16:45.226Z,5.60
2022-11-28T08:19:11.978Z,5.38
2022-11-28T08:21:38.785Z,5.15
2022-11-28T08:24:05.915Z,5.43
2022-11-28T08:26:32.597Z,5.50
2022-11-28T08:28:59.536Z,5.43
2022-11-28T08:31:27.070Z,5.43
2022-11-28T08:33:54.463Z,5.22
2022-11-28T08:36:21.117Z,4.95
2022-11-28T08:39:03.306Z,4.57
2022-11-28T08:41:34.129Z,4.55
2022-11-28T08:44:00.427Z,5.10
2022-11-28T08:46:26.702Z,5.32
2022-11-28T08:48:52.981Z,4.70
2022-11-28T08:51:20.989Z,4.50
2022-11-28T08:53:49.366Z,3.83
2022-11-28T08:56:15.835Z,4.78
2022-11-28T08:58:42.170Z,4.63
2022-11-28T09:01:21.776Z,4.85
2022-11-28T09:03:48.371Z,4.88
2022-11-28T09:06:15.800Z,4.32
2022-11-28T09:08:42.569Z,3.83
2022-11-28T09:11:09.708Z,4.07
2022-11-28T09:13:36.464Z,5.00
2022-11-28T09:16:03.314Z,4.38
2022-11-28T09:18:29.651Z,4.75
2022-11-28T09:20:59.690Z,4.35
2022-11-28T09:23:25.979Z,4.90
2022-11-28T09:25:52.307Z,4.65
2022-11-28T09:28:18.663Z,5.32
2022-11-28T09:30:44.992Z,5.40
2022-11-28T09:33:13.231Z,5.85
2022-11-28T09:35:39.945Z,5.97
2022-11-28T09:38:06.686Z,5.80
2022-11-28T09:40:40.410Z,6.25
2022-11-28T09:43:13.286Z,6.90
2022-11-28T09:45:39.980Z,6.93
2022-11-28T09:48:29.302Z,6.72
2022-11-28T09:50:57.964Z,8.65
2022-11-28T09:53:30.511Z,6.43
2022-11-28T09:56:04.281Z,7.72
2022-11-28T09:58:43.137Z,8.18
2022-11-28T10:01:29.482Z,7.97
2022-11-28T10:04:04.216Z,7.57
2022-11-28T10:06:53.014Z,7.43
2022-11-28T10:09:25.322Z,8.55
2022-11-28T10:11:57.799Z,8.80
2022-11-28T10:14:39.883Z,9.45
2022-11-28T10:17:20.999Z,9.10
2022-11-28T10:20:00.762Z,9.38
2022-11-28T10:22:33.020Z,9.27
2022-11-28T10:25:03.522Z,10.43
2022-11-28T10:27:33.701Z,9.77
2022-11-28T10:30:02.739Z,11.00
2022-11-28T10:32:34.509Z,9.98
2022-11-28T10:35:03.358Z,10.38
2022-11-28T10:37:31.394Z,10.82
2022-11-28T10:40:30.303Z,10.75
2022-11-28T10:42:59.930Z,11.07
2022-11-28T10:45:38.472Z,11.20
2022-11-28T10:48:38.623Z,12.18
2022-11-28T10:51:05.913Z,12.00
2022-11-28T10:53:35.175Z,11.38
2022-11-28T10:56:09.907Z,11.25
2022-11-28T10:58:37.738Z,10.80
2022-11-28T11:01:04.313Z,10.63
2022-11-28T11:03:32.616Z,11.60
2022-11-28T11:05:59.959Z,10.85
2022-11-28T11:08:28.946Z,12.45
2022-11-28T11:10:58.276Z,12.45
2022-11-28T11:13:25.786Z,11.45
2022-11-28T11:16:03.643Z,11.77
2022-11-28T11:18:30.032Z,12.13
2022-11-28T11:21:14.103Z,12.20
2022-11-28T11:23:40.448Z,10.73
2022-11-28T11:26:10.365Z,12.07
2022-11-28T11:28:36.701Z,12.10
2022-11-28T11:31:05.034Z,11.98
2022-11-28T11:33:35.785Z,12.85
2022-11-28T11:36:06.269Z,14.20
2022-11-28T11:38:38.060Z,11.95
2022-11-28T11:41:23.140Z,12.90
2022-11-28T11:43:49.398Z,13.40
2022-11-28T11:46:16.296Z,11.60
2022-11-28T11:48:42.545Z,10.05
2022-11-28T11:51:24.013Z,12.45
2022-11-28T11:54:25.888Z,12.48
2022-11-28T11:57:05.768Z,11.27
2022-11-28T11:59:53.728Z,11.65
2022-11-28T12:02:23.880Z,10.23
2022-11-28T12:04:55.677Z,11.18
2022-11-28T12:07:26.158Z,11.77
2022-11-28T12:09:54.664Z,11.13
2022-11-28T12:12:29.052Z,11.02
2022-11-28T12:14:55.686Z,11.07
2022-11-28T12:17:48.891Z,12.20
2022-11-28T12:20:24.738Z,11.50
2022-11-28T12:23:03.174Z,10.82
2022-11-28T12:25:36.370Z,12.45
2022-11-28T12:28:11.289Z,11.20
2022-11-28T12:30:49.872Z,11.07
2022-11-28T12:33:25.153Z,10.50
2022-11-28T12:36:05.549Z,12.25
2022-11-28T12:39:07.183Z,12.02
2022-11-28T12:41:52.276Z,11.18
2022-11-28T12:44:37.083Z,12.52
2022-11-28T12:47:10.862Z,12.02
2022-11-28T12:49:55.767Z,10.38
2022-11-28T12:52:33.676Z,11.73
2022-11-28T12:55:25.823Z,11.43
2022-11-28T12:58:00.463Z,12.05
2022-11-28T13:00:29.188Z,11.77
2022-11-28T13:03:01.399Z,11.35
2022-11-28T13:05:34.450Z,12.05
2022-11-28T13:08:00.931Z,11.48
2022-11-28T13:10:31.407Z,11.98
2022-11-28T13:13:04.347Z,11.38
2022-11-28T13:15:41.489Z,11.65
2022-11-28T13:18:20.079Z,10.82
2022-11-28T13:20:50.269Z,11.45
2022-11-28T13:23:26.747Z,11.95
2022-11-28T13:25:55.422Z,11.43
2022-11-28T13:28:37.560Z,11.65
2022-11-28T13:31:21.256Z,10.23
2022-11-28T13:33:52.029Z,12.38
2022-11-28T13:39:24.014Z,12.90
2022-11-28T13:44:53.128Z,12.15
2022-11-28T13:47:22.483Z,11.35
2022-11-28T13:49:49.228Z,12.05
2022-11-28T13:52:18.460Z,14.45
2022-11-28T13:54:50.784Z,13.13
2022-11-28T13:57:39.627Z,13.43
2022-11-28T14:00:19.417Z,13.27
2022-11-28T14:02:47.452Z,13.25
2022-11-28T14:05:26.409Z,12.82
2022-11-28T14:07:53.688Z,13.68
2022-11-28T14:10:30.777Z,13.50
2022-11-28T14:13:06.194Z,13.52
2022-11-28T14:15:54.302Z,13.40
2022-11-28T14:18:56.309Z,13.32
2022-11-28T14:21:38.105Z,12.15
2022-11-28T14:24:04.393Z,12.35
2022-11-28T14:26:38.057Z,14.48
2022-11-28T14:29:06.109Z,12.85
2022-11-28T14:31:37.628Z,13.23
2022-11-28T14:34:05.669Z,12.35
2022-11-28T14:36:36.148Z,13.98
2022-11-28T14:39:08.831Z,14.02
2022-11-28T14:41:53.733Z,11.60
2022-11-28T14:44:38.726Z,14.02
2022-11-28T14:47:06.474Z,12.32
2022-11-28T14:49:32.703Z,11.95
2022-11-28T14:52:30.752Z,13.10
2022-11-28T14:54:53.261Z,14.00
2022-11-28T14:57:24.338Z,14.25
2022-11-28T14:59:51.045Z,12.90
2022-11-28T15:02:26.736Z,13.30
2022-11-28T15:05:04.896Z,11.18
2022-11-28T15:07:50.156Z,13.05
2022-11-28T15:10:23.529Z,13.38
2022-11-28T15:13:07.939Z,12.32
2022-11-28T15:15:34.304Z,13.05
2022-11-28T15:18:03.156Z,12.98
2022-11-28T15:20:31.832Z,11.93
2022-11-28T15:22:58.105Z,12.40
2022-11-28T15:25:25.613Z,13.50
2022-11-28T15:27:52.153Z,13.38
2022-11-28T15:30:26.391Z,12.48
2022-11-28T15:32:58.215Z,11.70
2022-11-28T15:35:24.538Z,12.55
2022-11-28T15:37:53.046Z,13.88
2022-11-28T15:40:28.806Z,12.93
2022-11-28T15:42:55.337Z,13.68
2022-11-28T15:45:26.619Z,14.90
2022-11-28T15:47:53.643Z,12.57
2022-11-28T15:50:25.027Z,12.68
2022-11-28T15:52:54.537Z,13.48
2022-11-28T15:55:20.951Z,13.68
2022-11-28T15:57:47.238Z,12.35
2022-11-28T16:00:14.420Z,11.77
2022-11-28T16:02:41.265Z,12.38
2022-11-28T16:05:09.137Z,12.02
2022-11-28T16:07:40.718Z,12.48
2022-11-28T16:10:16.995Z,12.48
2022-11-28T16:12:44.165Z,12.38
2022-11-28T16:15:18.141Z,12.48
2022-11-28T16:17:44.553Z,13.10
2022-11-28T16:20:24.686Z,12.40
2022-11-28T16:22:56.031Z,11.10
2022-11-28T16:25:23.856Z,12.65
2022-11-28T16:27:53.129Z,12.13
2022-11-28T16:30:25.896Z,12.27
2022-11-28T16:32:53.325Z,12.52
2022-11-28T16:35:30.203Z,13.85
2022-11-28T16:38:06.473Z,15.07
2022-11-28T16:40:32.825Z,14.73
2022-11-28T16:42:59.491Z,14.30
2022-11-28T16:45:30.630Z,14.40
2022-11-28T16:48:00.246Z,15.25
2022-11-28T16:50:26.735Z,14.32
2022-11-28T16:52:57.739Z,15.85
2022-11-28T16:55:26.808Z,14.32
2022-11-28T16:58:07.278Z,14.68
2022-11-28T17:00:33.950Z,14.45
2022-11-28T17:03:00.363Z,16.27
2022-11-28T17:05:26.596Z,15.50
2022-11-28T17:07:53.123Z,14.93
2022-11-28T17:10:19.456Z,16.58
2022-11-28T17:12:45.789Z,16.45
2022-11-28T17:15:15.004Z,15.27
2022-11-28T17:17:41.277Z,17.13
2022-11-28T17:20:07.751Z,15.32
2022-11-28T17:22:40.718Z,13.95
2022-11-28T17:25:10.417Z,16.63
2022-11-28T17:27:36.685Z,16.85
2022-11-28T17:30:02.991Z,15.32
2022-11-28T17:32:29.230Z,14.98
2022-11-28T17:34:55.488Z,14.30
2022-11-28T17:37:21.774Z,13.93
2022-11-28T17:40:06.993Z,14.55
2022-11-28T17:42:33.330Z,17.73
2022-11-28T17:44:59.636Z,17.52
2022-11-28T17:47:25.937Z,18.17
2022-11-28T17:49:52.377Z,17.98
2022-11-28T17:52:19.944Z,15.93
2022-11-28T17:54:46.280Z,18.55
2022-11-28T17:57:12.817Z,15.85
2022-11-28T17:59:39.112Z,16.85
2022-11-28T18:02:05.436Z,14.70
2022-11-28T18:04:34.021Z,13.80
2022-11-28T18:07:01.612Z,12.30
2022-11-28T18:09:29.163Z,14.93
2022-11-28T18:11:55.387Z,13.98
2022-11-28T18:14:21.649Z,14.73
2022-11-28T18:16:48.097Z,14.10
2022-11-28T18:19:14.390Z,15.07
2022-11-28T18:21:40.675Z,14.65
2022-11-28T18:24:07.179Z,13.88
2022-11-28T18:26:33.487Z,13.90
2022-11-28T18:29:00.178Z,13.40
2022-11-28T18:31:27.645Z,12.32
2022-11-28T18:34:00.306Z,13.75
2022-11-28T18:36:29.176Z,13.48
2022-11-28T18:38:55.972Z,14.75
2022-11-28T18:41:22.203Z,14.95
2022-11-28T18:43:48.511Z,14.77
2022-11-28T18:46:16.325Z,13.43
2022-11-28T18:48:43.669Z,12.10
2022-11-28T18:51:11.128Z,12.80
2022-11-28T18:53:37.509Z,11.95
2022-11-28T18:56:03.887Z,10.93
2022-11-28T18:58:33.044Z,12.88
2022-11-28T19:00:59.277Z,14.25
2022-11-28T19:03:25.490Z,13.48
2022-11-28T19:05:51.722Z,14.82
2022-11-28T19:08:17.920Z,14.65
2022-11-28T19:10:44.597Z,14.98
2022-11-28T19:13:10.880Z,14.55
2022-11-28T19:15:40.549Z,13.80
2022-11-28T19:18:06.818Z,15.90
2022-11-28T19:20:33.080Z,13.75
2022-11-28T19:22:59.339Z,13.60
2022-11-28T19:25:26.075Z,15.98
2022-11-28T19:27:52.341Z,13.20
2022-11-28T19:30:18.622Z,14.38
2022-11-28T19:32:44.838Z,15.02
2022-11-28T19:35:11.085Z,14.30
2022-11-28T19:37:37.352Z,15.50
2022-11-28T19:40:03.722Z,16.20
2022-11-28T19:42:29.948Z,14.98
2022-11-28T19:44:56.201Z,15.35
2022-11-28T19:47:22.845Z,14.30
2022-11-28T19:49:49.167Z,15.35
2022-11-28T19:52:15.425Z,15.00
2022-11-28T19:54:42.348Z,15.25
2022-11-28T19:57:11.191Z,15.32
2022-11-28T19:59:37.479Z,14.18
2022-11-28T20:02:05.856Z,14.73
2022-11-28T20:04:32.157Z,13.95
2022-11-28T20:06:58.414Z,15.48
2022-11-28T20:09:24.685Z,14.07
2022-11-28T20:11:50.984Z,15.35
2022-11-28T20:14:18.316Z,15.35
2022-11-28T20:16:45.032Z,14.85
2022-11-28T20:19:11.907Z,14.27
2022-11-28T20:21:38.222Z,14.13
2022-11-28T20:24:07.224Z,15.95
2022-11-28T20:26:35.208Z,14.18
2022-11-28T20:29:01.534Z,14.85
2022-11-28T20:31:30.579Z,13.93
2022-11-28T20:33:57.128Z,16.58
2022-11-28T20:36:24.102Z,13.82
2022-11-28T20:38:50.888Z,13.57
2022-11-28T20:41:18.068Z,15.70
2022-11-28T20:43:44.538Z,14.05
2022-11-28T20:46:12.737Z,14.85
2022-11-28T20:48:39.454Z,13.80
2022-11-28T20:51:09.286Z,14.65
2022-11-28T20:53:37.421Z,13.77
2022-11-28T20:56:04.886Z,14.50
2022-11-28T20:58:31.220Z,13.98
2022-11-28T21:00:57.669Z,13.75
2022-11-28T21:03:23.990Z,14.75
2022-11-28T21:05:50.358Z,14.95
2022-11-28T21:08:16.794Z,13.98
2022-11-28T21:10:43.318Z,14.88
2022-11-28T21:13:09.703Z,14.88
2022-11-28T21:15:45.346Z,14.25
2022-11-28T21:18:12.673Z,16.95
2022-11-28T21:20:40.322Z,16.38
2022-11-28T21:23:06.565Z,16.80
2022-11-28T21:25:34.897Z,17.50
2022-11-28T21:28:01.097Z,16.67
2022-11-28T21:30:27.350Z,16.95
2022-11-28T21:32:53.560Z,17.92
2022-11-28T21:35:19.909Z,16.13
2022-11-28T21:37:46.175Z,18.08
2022-11-28T21:40:12.792Z,17.70
2022-11-28T21:42:39.075Z,17.65
2022-11-28T21:45:05.597Z,18.60
2022-11-28T21:47:31.872Z,16.77
2022-11-28T21:49:58.144Z,16.25
2022-11-28T21:52:24.627Z,17.27
2022-11-28T21:54:51.766Z,16.90
2022-11-28T21:57:18.298Z,17.85
2022-11-28T21:59:44.798Z,16.55
2022-11-28T22:02:13.980Z,14.23
2022-11-28T22:04:40.474Z,18.50
2022-11-28T22:07:06.993Z,16.15
2022-11-28T22:09:33.263Z,19.30
2022-11-28T22:11:59.586Z,16.83
2022-11-28T22:14:25.949Z,19.67
2022-11-28T22:16:52.269Z,16.55
2022-11-28T22:19:18.548Z,17.75
2022-11-28T22:21:53.784Z,17.00
2022-11-28T22:24:21.957Z,18.92
2022-11-28T22:26:48.184Z,19.13
2022-11-28T22:29:14.457Z,18.15
2022-11-28T22:31:40.792Z,17.90
2022-11-28T22:34:08.215Z,17.42
2022-11-28T22:36:34.484Z,18.55
2022-11-28T22:39:02.393Z,18.98
2022-11-28T22:41:29.721Z,18.15
2022-11-28T22:43:57.531Z,19.38
2022-11-28T22:46:23.832Z,18.33
2022-11-28T22:48:51.692Z,18.52
2022-11-28T22:51:20.465Z,18.52
2022-11-28T22:53:46.722Z,19.30
2022-11-28T22:56:14.431Z,18.77
2022-11-28T22:58:42.863Z,20.45
2022-11-28T23:01:10.312Z,18.02
2022-11-28T23:03:36.573Z,18.95
2022-11-28T23:06:06.564Z,18.95
2022-11-28T23:08:33.175Z,19.77
2022-11-28T23:10:59.435Z,17.30
2022-11-28T23:13:26.260Z,16.88
2022-11-28T23:15:53.038Z,17.83
2022-11-28T23:18:19.461Z,19.77
2022-11-28T23:20:45.756Z,19.63
2022-11-28T23:23:11.977Z,17.40
2022-11-28T23:25:38.194Z,17.38
2022-11-28T23:28:04.455Z,16.40
2022-11-28T23:30:30.741Z,18.80
2022-11-28T23:32:56.995Z,17.25
2022-11-28T23:35:23.201Z,17.75
2022-11-28T23:37:49.405Z,18.23
2022-11-28T23:40:15.701Z,19.20
2022-11-28T23:42:41.992Z,18.08
2022-11-28T23:45:08.757Z,18.30
2022-11-28T23:47:35.028Z,17.58
2022-11-28T23:50:01.891Z,18.48
2022-11-28T23:52:28.176Z,20.02
2022-11-28T23:54:54.497Z,20.15
2022-11-28T23:57:20.713Z,21.15
2022-11-28T23:59:46.986Z,19.77
